createdAt,value
2023-01-02T00:01:08.810Z,6.57
2023-01-02T00:04:15.430Z,6.54
2023-01-02T00:07:20.772Z,6.55
2023-01-02T00:10:27.034Z,6.58
2023-01-02T00:13:35.220Z,6.58
2023-01-02T00:16:41.445Z,6.50
2023-01-02T00:19:46.852Z,6.42
2023-01-02T00:22:53.182Z,6.48
2023-01-02T00:25:58.600Z,6.51
2023-01-02T00:29:07.647Z,6.51
2023-01-02T00:32:13.050Z,6.55
2023-01-02T00:35:19.572Z,6.56
2023-01-02T00:38:25.114Z,6.56
2023-01-02T00:41:31.444Z,6.63
2023-01-02T00:44:39.625Z,6.67
2023-01-02T00:47:46.032Z,6.72
2023-01-02T00:50:52.252Z,6.75
2023-01-02T00:53:58.483Z,6.79
2023-01-02T00:57:04.262Z,6.79
2023-01-02T01:00:21.600Z,6.83
2023-01-02T01:03:29.791Z,6.85
2023-01-02T01:06:36.846Z,6.88
2023-01-02T01:09:42.247Z,6.90
2023-01-02T01:12:48.482Z,6.94
2023-01-02T01:15:56.668Z,6.96
2023-01-02T01:19:02.998Z,6.97
2023-01-02T01:22:08.342Z,7.00
2023-01-02T01:25:14.688Z,6.97
2023-01-02T01:28:20.048Z,6.94
2023-01-02T01:31:29.414Z,6.93
2023-01-02T01:34:35.094Z,6.91
2023-01-02T01:37:42.132Z,6.87
2023-01-02T01:40:47.488Z,6.83
2023-01-02T01:43:57.182Z,6.74
2023-01-02T01:47:06.063Z,6.64
2023-01-02T01:50:17.967Z,6.54
2023-01-02T01:53:26.697Z,6.50
2023-01-02T01:56:33.085Z,6.43
2023-01-02T01:59:39.471Z,6.39
2023-01-02T02:02:55.366Z,6.34
2023-01-02T02:06:05.117Z,6.31
2023-01-02T02:09:22.622Z,6.24
2023-01-02T02:12:28.527Z,6.19
2023-01-02T02:15:54.692Z,6.12
2023-01-02T02:20:03.928Z,6.04
2023-01-02T02:24:05.545Z,5.93
2023-01-02T02:27:49.250Z,5.86
2023-01-02T02:31:12.150Z,5.76
2023-01-02T02:34:31.144Z,5.72
2023-01-02T02:37:53.097Z,5.62
2023-01-02T02:41:12.508Z,5.57
2023-01-02T02:44:38.206Z,5.49
2023-01-02T02:47:59.202Z,5.47
2023-01-02T02:51:16.304Z,5.41
2023-01-02T02:54:30.408Z,5.35
2023-01-02T02:57:39.955Z,5.35
2023-01-02T03:00:45.283Z,5.32
2023-01-02T03:03:54.289Z,5.26
2023-01-02T03:07:21.616Z,5.18
2023-01-02T03:10:46.753Z,5.19
2023-01-02T03:14:09.528Z,5.19
2023-01-02T03:17:32.577Z,5.24
2023-01-02T03:20:49.399Z,5.29
2023-01-02T03:23:58.416Z,5.32
2023-01-02T03:27:12.863Z,5.34
2023-01-02T03:30:24.997Z,5.35
2023-01-02T03:33:39.061Z,5.35
2023-01-02T03:36:57.569Z,5.37
2023-01-02T03:40:14.529Z,5.37
2023-01-02T03:43:29.323Z,5.33
2023-01-02T03:46:45.150Z,5.22
2023-01-02T03:49:57.800Z,5.18
2023-01-02T03:53:06.496Z,5.15
2023-01-02T03:56:30.798Z,5.09
2023-01-02T03:59:56.113Z,5.01
2023-01-02T04:03:13.809Z,4.94
2023-01-02T04:06:28.258Z,4.88
2023-01-02T04:09:43.330Z,4.81
2023-01-02T04:12:59.622Z,4.76
2023-01-02T04:16:11.419Z,4.75
2023-01-02T04:19:27.529Z,4.74
2023-01-02T04:22:46.086Z,4.76
2023-01-02T04:26:05.901Z,4.79
2023-01-02T04:29:12.511Z,4.95
2023-01-02T04:32:28.021Z,5.08
2023-01-02T04:35:34.720Z,5.19
2023-01-02T04:38:40.879Z,5.26
2023-01-02T04:41:49.918Z,5.32
2023-01-02T04:44:55.320Z,5.40
2023-01-02T04:48:01.643Z,5.45
2023-01-02T04:51:07.253Z,5.50
2023-01-02T04:54:15.418Z,5.51
2023-01-02T04:57:23.542Z,5.60
2023-01-02T05:00:30.091Z,5.68
2023-01-02T05:03:35.443Z,5.76
2023-01-02T05:06:42.108Z,5.82
2023-01-02T05:09:47.864Z,5.87
2023-01-02T05:12:56.913Z,5.89
2023-01-02T05:16:02.405Z,5.89
2023-01-02T05:19:08.708Z,5.87
2023-01-02T05:22:30.956Z,5.84
2023-01-02T05:25:39.288Z,5.74
2023-01-02T05:28:48.019Z,5.59
2023-01-02T05:31:54.247Z,5.46
2023-01-02T05:34:59.604Z,5.34
2023-01-02T05:38:05.901Z,5.23
2023-01-02T05:41:11.742Z,5.13
2023-01-02T05:44:20.860Z,5.05
2023-01-02T05:47:26.379Z,5.00
2023-01-02T05:50:32.586Z,4.94
2023-01-02T05:53:38.879Z,4.87
2023-01-02T05:56:45.152Z,4.83
2023-01-02T05:59:53.265Z,4.80
2023-01-02T06:03:00.105Z,4.80
2023-01-02T06:06:08.334Z,4.77
2023-01-02T06:09:18.175Z,4.76
2023-01-02T06:12:23.569Z,4.70
2023-01-02T06:15:32.535Z,4.68
2023-01-02T06:18:40.767Z,4.58
2023-01-02T06:21:47.036Z,4.57
2023-01-02T06:24:52.355Z,4.54
2023-01-02T06:27:58.579Z,4.51
2023-01-02T06:31:10.543Z,4.44
2023-01-02T06:34:17.960Z,4.38
2023-01-02T06:37:23.300Z,4.35
2023-01-02T06:40:29.545Z,4.29
2023-01-02T06:43:36.675Z,4.26
2023-01-02T06:46:45.707Z,4.25
2023-01-02T06:49:51.038Z,4.21
2023-01-02T06:52:57.296Z,4.19
2023-01-02T06:56:02.855Z,4.18
2023-01-02T06:59:09.070Z,4.15
2023-01-02T07:02:18.234Z,4.15
2023-01-02T07:05:25.245Z,4.14
2023-01-02T07:08:30.725Z,4.18
2023-01-02T07:11:37.040Z,4.19
2023-01-02T07:14:42.432Z,4.19
2023-01-02T07:17:51.494Z,4.21
2023-01-02T07:20:58.235Z,4.19
2023-01-02T07:24:04.521Z,4.18
2023-01-02T07:27:09.874Z,4.20
2023-01-02T07:30:17.371Z,4.19
2023-01-02T07:33:25.657Z,4.21
2023-01-02T07:36:32.146Z,4.23
2023-01-02T07:39:37.819Z,4.25
2023-01-02T07:42:44.038Z,4.29
2023-01-02T07:45:50.609Z,4.35
2023-01-02T07:49:00.034Z,4.46
2023-01-02T07:52:05.664Z,4.51
2023-01-02T07:55:12.506Z,4.62
2023-01-02T07:58:17.964Z,4.68
2023-01-02T08:01:24.367Z,4.71
2023-01-02T08:04:32.658Z,4.78
2023-01-02T08:07:44.637Z,4.81
2023-01-02T08:10:50.441Z,4.86
2023-01-02T08:13:56.893Z,4.93
2023-01-02T08:17:02.295Z,4.98
2023-01-02T08:20:14.408Z,5.08
2023-01-02T08:23:19.822Z,5.21
2023-01-02T08:26:26.336Z,5.36
2023-01-02T08:29:31.689Z,5.49
2023-01-02T08:32:40.279Z,5.61
2023-01-02T08:35:48.767Z,5.73
2023-01-02T08:38:55.090Z,5.82
2023-01-02T08:42:01.129Z,5.91
2023-01-02T08:45:08.489Z,6.00
2023-01-02T08:48:20.764Z,6.09
2023-01-02T08:51:31.613Z,6.16
2023-01-02T08:54:37.802Z,6.20
2023-01-02T08:57:44.000Z,6.27
2023-01-02T09:00:49.411Z,6.35
2023-01-02T09:03:56.540Z,6.42
2023-01-02T09:07:04.915Z,6.49
2023-01-02T09:10:12.576Z,6.56
2023-01-02T09:13:17.918Z,6.62
2023-01-02T09:16:25.420Z,6.71
2023-01-02T09:19:30.988Z,6.79
2023-01-02T09:22:40.831Z,6.86
2023-01-02T09:25:46.165Z,6.95
2023-01-02T09:28:52.676Z,7.01
2023-01-02T09:31:58.133Z,7.08
2023-01-02T09:35:04.460Z,7.13
2023-01-02T09:38:12.675Z,7.13
2023-01-02T09:41:36.195Z,7.16
2023-01-02T09:44:49.413Z,7.21
2023-01-02T09:48:03.018Z,7.23
2023-01-02T09:51:10.197Z,7.22
2023-01-02T09:54:29.789Z,7.26
2023-01-02T09:57:54.667Z,7.26
2023-01-02T10:01:03.117Z,7.27
2023-01-02T10:04:32.078Z,7.28
2023-01-02T10:07:52.127Z,7.32
2023-01-02T10:11:30.024Z,7.38
2023-01-02T10:14:55.989Z,7.48
2023-01-02T10:18:23.724Z,7.52
2023-01-02T10:21:37.523Z,7.59
2023-01-02T10:24:50.785Z,7.66
2023-01-02T10:28:13.071Z,7.74
2023-01-02T10:31:28.314Z,7.85
2023-01-02T10:34:47.975Z,7.94
2023-01-02T10:37:53.453Z,7.98
2023-01-02T10:40:59.962Z,8.03
2023-01-02T10:44:18.504Z,8.07
2023-01-02T10:47:37.497Z,8.08
2023-01-02T10:50:51.576Z,8.09
2023-01-02T10:54:07.613Z,8.13
2023-01-02T10:57:24.447Z,8.15
2023-01-02T11:00:39.224Z,8.21
2023-01-02T11:03:44.704Z,8.31
2023-01-02T11:06:59.569Z,8.41
2023-01-02T11:10:05.746Z,8.51
2023-01-02T11:13:15.819Z,8.60
2023-01-02T11:16:29.370Z,8.68
2023-01-02T11:19:45.944Z,8.76
2023-01-02T11:22:52.009Z,8.83
2023-01-02T11:26:01.463Z,8.91
2023-01-02T11:29:16.278Z,9.00
2023-01-02T11:32:38.741Z,9.07
2023-01-02T11:35:50.892Z,9.11
2023-01-02T11:39:01.009Z,9.17
2023-01-02T11:42:39.095Z,9.24
2023-01-02T11:45:47.786Z,9.31
2023-01-02T11:49:07.383Z,9.36
2023-01-02T11:52:22.143Z,9.38
2023-01-02T11:55:47.675Z,9.42
2023-01-02T11:59:05.751Z,9.48
2023-01-02T12:02:26.864Z,9.54
2023-01-02T12:05:58.451Z,9.62
2023-01-02T12:09:12.432Z,9.62
2023-01-02T12:12:50.144Z,9.71
2023-01-02T12:16:28.421Z,9.80
2023-01-02T12:20:18.012Z,9.81
2023-01-02T12:23:55.920Z,9.88
2023-01-02T12:27:17.352Z,10.06
2023-01-02T12:30:25.216Z,10.17
2023-01-02T12:33:53.762Z,10.14
2023-01-02T12:37:21.812Z,10.23
2023-01-02T12:41:05.146Z,10.36
2023-01-02T12:44:41.741Z,10.32
2023-01-02T12:48:18.361Z,10.40
2023-01-02T12:51:40.329Z,10.44
2023-01-02T12:55:14.196Z,10.56
2023-01-02T12:58:45.159Z,10.56
2023-01-02T13:02:09.094Z,10.66
2023-01-02T13:05:25.309Z,10.72
2023-01-02T13:08:46.742Z,10.76
2023-01-02T13:12:03.736Z,10.81
2023-01-02T13:15:25.318Z,10.76
2023-01-02T13:19:00.081Z,10.69
2023-01-02T13:22:24.529Z,10.66
2023-01-02T13:25:33.559Z,10.72
2023-01-02T13:28:44.524Z,10.74
2023-01-02T13:31:58.206Z,10.79
2023-01-02T13:35:07.533Z,10.79
2023-01-02T13:38:21.354Z,10.83
2023-01-02T13:41:58.842Z,10.87
2023-01-02T13:45:15.278Z,10.87
2023-01-02T13:48:36.760Z,10.90
2023-01-02T13:51:42.779Z,10.95
2023-01-02T13:55:34.210Z,11.00
2023-01-02T13:59:01.429Z,10.98
2023-01-02T14:02:21.301Z,10.89
2023-01-02T14:06:06.550Z,10.81
2023-01-02T14:09:17.301Z,10.68
2023-01-02T14:12:22.825Z,10.69
2023-01-02T14:15:31.403Z,10.70
2023-01-02T14:18:41.059Z,10.66
2023-01-02T14:22:07.553Z,10.67
2023-01-02T14:25:15.765Z,10.67
2023-01-02T14:28:30.789Z,10.62
2023-01-02T14:31:39.438Z,10.51
2023-01-02T14:34:52.279Z,10.43
2023-01-02T14:38:19.805Z,10.24
2023-01-02T14:42:38.893Z,10.22
2023-01-02T14:45:50.759Z,10.16
2023-01-02T14:49:25.475Z,10.11
2023-01-02T14:52:46.772Z,9.97
2023-01-02T14:56:06.926Z,9.96
2023-01-02T14:59:27.198Z,9.92
2023-01-02T15:02:43.219Z,9.89
2023-01-02T15:05:58.896Z,9.86
2023-01-02T15:09:16.607Z,9.82
2023-01-02T15:12:44.339Z,9.75
2023-01-02T15:15:56.235Z,9.69
2023-01-02T15:19:05.833Z,9.73
2023-01-02T15:22:15.159Z,9.49
2023-01-02T15:25:36.935Z,9.55
2023-01-02T15:28:45.977Z,9.50
2023-01-02T15:31:56.671Z,9.45
2023-01-02T15:35:24.951Z,9.39
2023-01-02T15:38:31.054Z,9.34
2023-01-02T15:41:47.033Z,9.28
2023-01-02T15:45:13.861Z,9.26
2023-01-02T15:48:24.531Z,9.18
2023-01-02T15:51:40.070Z,9.05
2023-01-02T15:54:48.934Z,9.03
2023-01-02T15:57:57.218Z,8.97
2023-01-02T16:01:25.736Z,8.92
2023-01-02T16:04:34.808Z,8.85
2023-01-02T16:07:42.203Z,8.70
2023-01-02T16:10:51.526Z,8.61
2023-01-02T16:14:19.415Z,8.61
2023-01-02T16:17:32.165Z,8.58
2023-01-02T16:20:38.519Z,8.51
2023-01-02T16:23:54.107Z,8.48
2023-01-02T16:27:00.437Z,8.45
2023-01-02T16:30:30.184Z,8.50
2023-01-02T16:33:39.424Z,8.46
2023-01-02T16:36:46.654Z,8.36
2023-01-02T16:39:53.894Z,8.33
2023-01-02T16:43:04.977Z,8.25
2023-01-02T16:46:18.127Z,8.27
2023-01-02T16:49:27.674Z,8.21
2023-01-02T16:52:34.223Z,8.21
2023-01-02T16:55:39.918Z,8.15
2023-01-02T16:58:46.471Z,8.08
2023-01-02T17:01:52.451Z,8.07
2023-01-02T17:05:01.528Z,8.01
2023-01-02T17:08:08.536Z,7.92
2023-01-02T17:11:18.880Z,7.88
2023-01-02T17:14:24.533Z,7.78
2023-01-02T17:17:31.305Z,7.66
2023-01-02T17:20:40.214Z,7.64
2023-01-02T17:23:46.455Z,7.63
2023-01-02T17:26:51.998Z,7.60
2023-01-02T17:29:58.455Z,7.54
2023-01-02T17:33:05.244Z,7.47
2023-01-02T17:36:15.160Z,7.45
2023-01-02T17:39:21.708Z,7.36
2023-01-02T17:42:28.359Z,7.26
2023-01-02T17:45:33.795Z,7.20
2023-01-02T17:48:40.147Z,7.19
2023-01-02T17:51:48.285Z,7.16
2023-01-02T17:54:56.711Z,7.13
2023-01-02T17:58:03.405Z,7.08
2023-01-02T18:01:09.711Z,7.02
2023-01-02T18:04:15.419Z,6.93
2023-01-02T18:07:24.598Z,6.91
2023-01-02T18:10:33.196Z,6.92
2023-01-02T18:13:46.873Z,6.91
2023-01-02T18:16:57.283Z,6.81
2023-01-02T18:20:09.209Z,6.79
2023-01-02T18:23:18.893Z,6.86
2023-01-02T18:26:27.810Z,6.85
2023-01-02T18:29:33.330Z,6.81
2023-01-02T18:32:43.011Z,6.79
2023-01-02T18:35:58.112Z,6.75
2023-01-02T18:39:26.062Z,6.67
2023-01-02T18:42:35.404Z,6.67
2023-01-02T18:45:43.122Z,6.64
2023-01-02T18:48:49.703Z,6.55
2023-01-02T18:52:22.765Z,6.53
2023-01-02T18:55:40.111Z,6.56
2023-01-02T18:58:51.744Z,6.57
2023-01-02T19:02:02.356Z,6.61
2023-01-02T19:05:25.855Z,6.62
2023-01-02T19:08:40.356Z,6.61
2023-01-02T19:12:15.006Z,6.54
2023-01-02T19:15:44.380Z,6.49
2023-01-02T19:18:54.318Z,6.45
2023-01-02T19:22:00.481Z,6.39
2023-01-02T19:25:22.137Z,6.39
2023-01-02T19:28:33.837Z,6.37
2023-01-02T19:31:46.897Z,6.35
2023-01-02T19:34:56.925Z,6.27
2023-01-02T19:38:24.147Z,6.29
2023-01-02T19:41:56.770Z,6.30
2023-01-02T19:45:10.151Z,6.27
2023-01-02T19:48:18.271Z,6.29
2023-01-02T19:51:25.229Z,6.23
2023-01-02T19:54:30.848Z,6.30
2023-01-02T19:57:37.848Z,6.21
2023-01-02T20:00:46.849Z,6.12
2023-01-02T20:03:53.172Z,6.17
2023-01-02T20:06:58.964Z,6.08
2023-01-02T20:10:05.499Z,6.18
2023-01-02T20:13:10.913Z,6.27
2023-01-02T20:16:20.577Z,6.23
2023-01-02T20:19:27.224Z,6.15
2023-01-02T20:22:34.181Z,6.13
2023-01-02T20:25:40.164Z,6.04
2023-01-02T20:28:47.162Z,5.94
2023-01-02T20:31:56.394Z,6.00
2023-01-02T20:35:02.688Z,6.02
2023-01-02T20:38:08.156Z,6.05
2023-01-02T20:41:14.406Z,6.00
2023-01-02T20:44:20.943Z,6.01
2023-01-02T20:47:29.995Z,5.97
2023-01-02T20:50:35.444Z,6.00
2023-01-02T20:53:41.756Z,5.97
2023-01-02T20:56:47.180Z,6.06
2023-01-02T20:59:53.475Z,6.09
2023-01-02T21:03:02.344Z,6.05
2023-01-02T21:06:09.190Z,6.01
2023-01-02T21:09:14.853Z,5.86
2023-01-02T21:12:36.835Z,5.90
2023-01-02T21:15:47.189Z,5.91
2023-01-02T21:18:57.995Z,5.85
2023-01-02T21:22:03.486Z,5.87
2023-01-02T21:25:10.612Z,5.88
2023-01-02T21:28:18.129Z,5.74
2023-01-02T21:31:24.718Z,5.76
2023-01-02T21:34:32.880Z,5.78
2023-01-02T21:37:39.098Z,5.82
2023-01-02T21:40:44.473Z,5.88
2023-01-02T21:43:51.621Z,5.79
2023-01-02T21:46:58.209Z,5.88
2023-01-02T21:50:08.649Z,5.88
2023-01-02T21:53:16.938Z,5.91
2023-01-02T21:56:23.408Z,5.87
2023-01-02T21:59:29.678Z,5.91
2023-01-02T22:02:38.795Z,5.81
2023-01-02T22:05:47.751Z,5.76
2023-01-02T22:08:53.967Z,5.77
2023-01-02T22:11:59.449Z,5.74
2023-01-02T22:15:09.993Z,5.77
2023-01-02T22:18:15.832Z,5.79
2023-01-02T22:21:25.109Z,5.84
2023-01-02T22:24:32.392Z,5.85
2023-01-02T22:27:39.311Z,5.89
2023-01-02T22:30:44.787Z,5.88
2023-01-02T22:33:51.180Z,5.82
2023-01-02T22:36:59.323Z,5.70
2023-01-02T22:40:05.559Z,5.64
2023-01-02T22:43:22.489Z,5.55
2023-01-02T22:46:37.896Z,5.52
2023-01-02T22:49:45.307Z,5.49
2023-01-02T22:52:55.196Z,5.36
2023-01-02T22:56:01.846Z,5.35
2023-01-02T22:59:08.130Z,5.15
2023-01-02T23:02:19.529Z,5.07
2023-01-02T23:05:26.014Z,5.06
2023-01-02T23:08:34.244Z,5.04
2023-01-02T23:11:40.712Z,5.11
2023-01-02T23:14:47.770Z,5.06
2023-01-02T23:18:09.762Z,5.01
2023-01-02T23:21:15.499Z,5.00
2023-01-02T23:24:29.683Z,5.00
2023-01-02T23:27:36.439Z,4.96
2023-01-02T23:30:43.232Z,4.93
2023-01-02T23:33:48.615Z,4.99
2023-01-02T23:36:59.124Z,4.93
2023-01-02T23:40:08.662Z,4.97
2023-01-02T23:43:15.676Z,5.03
2023-01-02T23:46:21.861Z,4.97
2023-01-02T23:49:28.632Z,5.01
2023-01-02T23:52:34.043Z,4.93
2023-01-02T23:55:46.864Z,4.99
2023-01-02T23:58:55.288Z,4.76
